sensor_id;sensor_type;location;lat;lon;timestamp;P1;durP1;ratioP1;P2;durP2;ratioP2
10333;SDS011;5212;47.892;16.406;2022-12-29T02:53:37;18.27;;;11.27;;
10333;SDS011;5212;47.892;16.406;2022-12-29T02:56:37;15.80;;;10.30;;
10333;SDS011;5212;47.892;16.406;2022-12-29T03:31:53;18.77;;;12.27;;
10333;SDS011;5212;47.892;16.406;2022-12-29T03:34:20;19.97;;;12.53;;
10333;SDS011;5212;47.892;16.406;2022-12-29T03:36:47;24.00;;;14.40;;
10333;SDS011;5212;47.892;16.406;2022-12-29T03:39:16;25.13;;;15.20;;
10333;SDS011;5212;47.892;16.406;2022-12-29T03:41:44;28.67;;;16.90;;
10333;SDS011;5212;47.892;16.406;2022-12-29T03:44:11;25.20;;;15.80;;
10333;SDS011;5212;47.892;16.406;2022-12-29T03:46:40;28.50;;;15.60;;
10333;SDS011;5212;47.892;16.406;2022-12-29T03:49:08;22.90;;;13.90;;
10333;SDS011;5212;47.892;16.406;2022-12-29T03:51:34;22.50;;;12.93;;
10333;SDS011;5212;47.892;16.406;2022-12-29T03:54:00;20.33;;;12.30;;
10333;SDS011;5212;47.892;16.406;2022-12-29T03:56:26;19.27;;;12.10;;
10333;SDS011;5212;47.892;16.406;2022-12-29T03:58:53;18.60;;;11.67;;
10333;SDS011;5212;47.892;16.406;2022-12-29T04:01:20;18.17;;;11.30;;
10333;SDS011;5212;47.892;16.406;2022-12-29T04:03:46;15.40;;;10.50;;
10333;SDS011;5212;47.892;16.406;2022-12-29T04:06:13;15.13;;;10.60;;
10333;SDS011;5212;47.892;16.406;2022-12-29T04:08:39;19.10;;;12.10;;
10333;SDS011;5212;47.892;16.406;2022-12-29T04:11:06;14.80;;;10.40;;
10333;SDS011;5212;47.892;16.406;2022-12-29T04:13:32;14.63;;;10.30;;
10333;SDS011;5212;47.892;16.406;2022-12-29T04:15:59;17.43;;;11.87;;
10333;SDS011;5212;47.892;16.406;2022-12-29T04:18:25;22.80;;;13.37;;
10333;SDS011;5212;47.892;16.406;2022-12-29T04:20:51;20.63;;;12.20;;
10333;SDS011;5212;47.892;16.406;2022-12-29T04:23:29;20.87;;;13.37;;
10333;SDS011;5212;47.892;16.406;2022-12-29T04:25:56;18.97;;;12.80;;
10333;SDS011;5212;47.892;16.406;2022-12-29T04:28:23;21.20;;;12.37;;
10333;SDS011;5212;47.892;16.406;2022-12-29T04:30:50;16.47;;;10.93;;
10333;SDS011;5212;47.892;16.406;2022-12-29T04:33:18;18.17;;;11.13;;
10333;SDS011;5212;47.892;16.406;2022-12-29T04:35:44;17.10;;;11.53;;
10333;SDS011;5212;47.892;16.406;2022-12-29T04:38:11;17.00;;;10.30;;
10333;SDS011;5212;47.892;16.406;2022-12-29T04:40:42;16.80;;;11.20;;
10333;SDS011;5212;47.892;16.406;2022-12-29T04:43:09;16.73;;;11.00;;
10333;SDS011;5212;47.892;16.406;2022-12-29T04:45:37;15.23;;;10.37;;
10333;SDS011;5212;47.892;16.406;2022-12-29T04:48:05;15.63;;;10.20;;
10333;SDS011;5212;47.892;16.406;2022-12-29T04:50:31;15.97;;;10.17;;
10333;SDS011;5212;47.892;16.406;2022-12-29T04:52:57;19.33;;;11.90;;
10333;SDS011;5212;47.892;16.406;2022-12-29T04:55:24;18.50;;;11.70;;
10333;SDS011;5212;47.892;16.406;2022-12-29T04:57:54;18.60;;;12.00;;
10333;SDS011;5212;47.892;16.406;2022-12-29T05:00:21;18.77;;;12.10;;
10333;SDS011;5212;47.892;16.406;2022-12-29T05:02:47;18.57;;;11.47;;
10333;SDS011;5212;47.892;16.406;2022-12-29T05:05:14;18.03;;;11.80;;
10333;SDS011;5212;47.892;16.406;2022-12-29T05:07:41;17.67;;;11.17;;
10333;SDS011;5212;47.892;16.406;2022-12-29T05:10:07;16.03;;;10.47;;
10333;SDS011;5212;47.892;16.406;2022-12-29T05:12:35;15.70;;;11.33;;
10333;SDS011;5212;47.892;16.406;2022-12-29T05:15:04;17.17;;;11.47;;
10333;SDS011;5212;47.892;16.406;2022-12-29T05:17:31;21.57;;;12.30;;
10333;SDS011;5212;47.892;16.406;2022-12-29T05:19:58;15.57;;;10.43;;
10333;SDS011;5212;47.892;16.406;2022-12-29T05:22:24;18.50;;;10.77;;
10333;SDS011;5212;47.892;16.406;2022-12-29T05:24:51;21.03;;;10.50;;
10333;SDS011;5212;47.892;16.406;2022-12-29T05:27:18;17.83;;;12.07;;
10333;SDS011;5212;47.892;16.406;2022-12-29T05:29:44;16.37;;;10.63;;
10333;SDS011;5212;47.892;16.406;2022-12-29T05:32:11;19.10;;;12.03;;
10333;SDS011;5212;47.892;16.406;2022-12-29T05:34:38;17.27;;;11.70;;
10333;SDS011;5212;47.892;16.406;2022-12-29T05:37:04;17.97;;;11.20;;
10333;SDS011;5212;47.892;16.406;2022-12-29T05:39:31;17.20;;;10.67;;
10333;SDS011;5212;47.892;16.406;2022-12-29T05:41:57;18.73;;;11.13;;
10333;SDS011;5212;47.892;16.406;2022-12-29T05:44:24;17.27;;;10.93;;
10333;SDS011;5212;47.892;16.406;2022-12-29T05:46:50;19.07;;;12.47;;
10333;SDS011;5212;47.892;16.406;2022-12-29T05:49:18;19.90;;;12.53;;
10333;SDS011;5212;47.892;16.406;2022-12-29T05:51:44;17.90;;;12.13;;
10333;SDS011;5212;47.892;16.406;2022-12-29T05:54:11;23.67;;;14.60;;
10333;SDS011;5212;47.892;16.406;2022-12-29T05:56:37;22.13;;;13.77;;
10333;SDS011;5212;47.892;16.406;2022-12-29T05:59:03;21.30;;;12.37;;
10333;SDS011;5212;47.892;16.406;2022-12-29T06:01:30;23.07;;;13.73;;
10333;SDS011;5212;47.892;16.406;2022-12-29T06:03:56;26.93;;;15.83;;
10333;SDS011;5212;47.892;16.406;2022-12-29T06:06:23;21.30;;;13.10;;
10333;SDS011;5212;47.892;16.406;2022-12-29T06:08:50;24.03;;;13.73;;
10333;SDS011;5212;47.892;16.406;2022-12-29T06:11:16;23.47;;;13.00;;
10333;SDS011;5212;47.892;16.406;2022-12-29T06:13:42;21.93;;;12.00;;
10333;SDS011;5212;47.892;16.406;2022-12-29T06:16:10;21.10;;;13.27;;
10333;SDS011;5212;47.892;16.406;2022-12-29T06:18:36;19.53;;;12.57;;
10333;SDS011;5212;47.892;16.406;2022-12-29T06:21:03;23.17;;;14.07;;
10333;SDS011;5212;47.892;16.406;2022-12-29T06:23:31;24.27;;;13.50;;
10333;SDS011;5212;47.892;16.406;2022-12-29T06:25:58;25.30;;;14.77;;
10333;SDS011;5212;47.892;16.406;2022-12-29T06:28:25;23.30;;;12.40;;
10333;SDS011;5212;47.892;16.406;2022-12-29T06:30:51;28.13;;;15.93;;
10333;SDS011;5212;47.892;16.406;2022-12-29T06:33:18;26.53;;;15.13;;
10333;SDS011;5212;47.892;16.406;2022-12-29T06:35:44;25.53;;;15.13;;
10333;SDS011;5212;47.892;16.406;2022-12-29T06:38:11;21.27;;;12.23;;
10333;SDS011;5212;47.892;16.406;2022-12-29T06:40:39;24.77;;;13.80;;
10333;SDS011;5212;47.892;16.406;2022-12-29T06:43:06;23.10;;;12.97;;
10333;SDS011;5212;47.892;16.406;2022-12-29T06:45:33;23.30;;;14.00;;
10333;SDS011;5212;47.892;16.406;2022-12-29T06:47:59;29.97;;;17.57;;
10333;SDS011;5212;47.892;16.406;2022-12-29T06:50:26;32.87;;;18.90;;
10333;SDS011;5212;47.892;16.406;2022-12-29T06:52:52;53.10;;;25.20;;
10333;SDS011;5212;47.892;16.406;2022-12-29T06:55:18;76.27;;;35.47;;
10333;SDS011;5212;47.892;16.406;2022-12-29T06:57:47;86.63;;;40.97;;
10333;SDS011;5212;47.892;16.406;2022-12-29T07:00:14;59.93;;;30.60;;
10333;SDS011;5212;47.892;16.406;2022-12-29T07:02:44;49.33;;;24.53;;
10333;SDS011;5212;47.892;16.406;2022-12-29T07:05:10;39.30;;;20.67;;
10333;SDS011;5212;47.892;16.406;2022-12-29T07:07:38;38.93;;;20.67;;
10333;SDS011;5212;47.892;16.406;2022-12-29T07:10:05;35.67;;;19.47;;
10333;SDS011;5212;47.892;16.406;2022-12-29T07:12:32;30.37;;;18.10;;
10333;SDS011;5212;47.892;16.406;2022-12-29T07:15:00;32.63;;;19.30;;
10333;SDS011;5212;47.892;16.406;2022-12-29T07:17:26;32.53;;;18.00;;
10333;SDS011;5212;47.892;16.406;2022-12-29T07:19:52;29.10;;;17.63;;
10333;SDS011;5212;47.892;16.406;2022-12-29T07:22:19;30.23;;;17.97;;
10333;SDS011;5212;47.892;16.406;2022-12-29T07:24:45;38.87;;;22.03;;
10333;SDS011;5212;47.892;16.406;2022-12-29T07:27:12;41.00;;;24.03;;
10333;SDS011;5212;47.892;16.406;2022-12-29T07:29:38;41.67;;;24.07;;
10333;SDS011;5212;47.892;16.406;2022-12-29T07:32:05;38.60;;;22.17;;
10333;SDS011;5212;47.892;16.406;2022-12-29T07:34:32;32.60;;;18.97;;
10333;SDS011;5212;47.892;16.406;2022-12-29T07:36:58;33.77;;;19.83;;
10333;SDS011;5212;47.892;16.406;2022-12-29T07:39:26;33.83;;;20.20;;
10333;SDS011;5212;47.892;16.406;2022-12-29T07:41:52;39.60;;;24.47;;
10333;SDS011;5212;47.892;16.406;2022-12-29T07:44:19;50.27;;;29.90;;
10333;SDS011;5212;47.892;16.406;2022-12-29T07:46:45;47.30;;;25.57;;
10333;SDS011;5212;47.892;16.406;2022-12-29T07:49:13;69.77;;;38.43;;
10333;SDS011;5212;47.892;16.406;2022-12-29T07:51:40;42.67;;;24.60;;
10333;SDS011;5212;47.892;16.406;2022-12-29T07:54:06;39.87;;;25.53;;
10333;SDS011;5212;47.892;16.406;2022-12-29T07:56:33;38.53;;;22.17;;
10333;SDS011;5212;47.892;16.406;2022-12-29T07:58:59;33.77;;;20.23;;
10333;SDS011;5212;47.892;16.406;2022-12-29T08:01:25;29.93;;;19.17;;
10333;SDS011;5212;47.892;16.406;2022-12-29T08:03:52;46.97;;;30.17;;
10333;SDS011;5212;47.892;16.406;2022-12-29T08:06:21;36.13;;;23.37;;
10333;SDS011;5212;47.892;16.406;2022-12-29T08:08:47;33.60;;;20.23;;
10333;SDS011;5212;47.892;16.406;2022-12-29T08:11:14;47.40;;;28.43;;
10333;SDS011;5212;47.892;16.406;2022-12-29T08:13:40;48.67;;;28.63;;
10333;SDS011;5212;47.892;16.406;2022-12-29T08:16:09;49.20;;;28.67;;
10333;SDS011;5212;47.892;16.406;2022-12-29T08:18:36;51.80;;;31.53;;
10333;SDS011;5212;47.892;16.406;2022-12-29T08:21:02;52.90;;;32.03;;
10333;SDS011;5212;47.892;16.406;2022-12-29T08:23:29;43.43;;;26.50;;
10333;SDS011;5212;47.892;16.406;2022-12-29T08:25:56;45.37;;;26.73;;
10333;SDS011;5212;47.892;16.406;2022-12-29T08:28:23;37.70;;;23.00;;
10333;SDS011;5212;47.892;16.406;2022-12-29T08:30:50;37.33;;;23.03;;
10333;SDS011;5212;47.892;16.406;2022-12-29T08:33:16;54.43;;;32.00;;
10333;SDS011;5212;47.892;16.406;2022-12-29T08:35:42;72.60;;;39.07;;
10333;SDS011;5212;47.892;16.406;2022-12-29T08:38:09;51.53;;;29.83;;
10333;SDS011;5212;47.892;16.406;2022-12-29T08:40:37;46.30;;;26.53;;
10333;SDS011;5212;47.892;16.406;2022-12-29T08:43:04;38.97;;;24.17;;
10333;SDS011;5212;47.892;16.406;2022-12-29T08:45:30;45.00;;;27.23;;
10333;SDS011;5212;47.892;16.406;2022-12-29T08:53:08;62.50;;;37.40;;
10333;SDS011;5212;47.892;16.406;2022-12-29T08:55:34;48.70;;;30.37;;
10333;SDS011;5212;47.892;16.406;2022-12-29T09:00:37;45.43;;;25.90;;
10333;SDS011;5212;47.892;16.406;2022-12-29T09:13:23;39.90;;;23.70;;
10333;SDS011;5212;47.892;16.406;2022-12-29T09:15:58;72.80;;;34.80;;
10333;SDS011;5212;47.892;16.406;2022-12-29T09:18:25;40.97;;;24.30;;
10333;SDS011;5212;47.892;16.406;2022-12-29T09:20:55;28.93;;;18.13;;
10333;SDS011;5212;47.892;16.406;2022-12-29T09:23:22;29.20;;;17.83;;
10333;SDS011;5212;47.892;16.406;2022-12-29T09:25:48;27.93;;;18.40;;
10333;SDS011;5212;47.892;16.406;2022-12-29T09:28:14;29.47;;;18.40;;
10333;SDS011;5212;47.892;16.406;2022-12-29T09:30:41;34.03;;;20.83;;
10333;SDS011;5212;47.892;16.406;2022-12-29T09:35:44;32.93;;;18.83;;
10333;SDS011;5212;47.892;16.406;2022-12-29T09:38:11;31.60;;;18.73;;
10333;SDS011;5212;47.892;16.406;2022-12-29T09:40:38;36.20;;;20.93;;
10333;SDS011;5212;47.892;16.406;2022-12-29T09:43:10;28.40;;;18.47;;
10333;SDS011;5212;47.892;16.406;2022-12-29T09:45:54;30.60;;;18.50;;
10333;SDS011;5212;47.892;16.406;2022-12-29T09:56:10;22.53;;;14.57;;
10333;SDS011;5212;47.892;16.406;2022-12-29T09:58:41;25.90;;;16.03;;
10333;SDS011;5212;47.892;16.406;2022-12-29T10:06:21;30.87;;;20.43;;
10333;SDS011;5212;47.892;16.406;2022-12-29T10:08:52;31.67;;;19.10;;
10333;SDS011;5212;47.892;16.406;2022-12-29T10:47:38;31.80;;;20.20;;
10333;SDS011;5212;47.892;16.406;2022-12-29T10:50:11;27.90;;;18.43;;
10333;SDS011;5212;47.892;16.406;2022-12-29T10:52:38;37.37;;;23.17;;
10333;SDS011;5212;47.892;16.406;2022-12-29T10:55:08;34.53;;;21.70;;
10333;SDS011;5212;47.892;16.406;2022-12-29T10:57:39;33.63;;;20.53;;
10333;SDS011;5212;47.892;16.406;2022-12-29T11:00:11;31.77;;;20.37;;
10333;SDS011;5212;47.892;16.406;2022-12-29T11:02:46;31.60;;;20.47;;
10333;SDS011;5212;47.892;16.406;2022-12-29T11:05:20;29.50;;;20.17;;
10333;SDS011;5212;47.892;16.406;2022-12-29T11:07:49;34.27;;;21.67;;
10333;SDS011;5212;47.892;16.406;2022-12-29T12:01:13;27.00;;;17.13;;
10333;SDS011;5212;47.892;16.406;2022-12-29T12:04:02;28.23;;;18.10;;
10333;SDS011;5212;47.892;16.406;2022-12-29T12:06:30;28.57;;;18.87;;
10333;SDS011;5212;47.892;16.406;2022-12-29T19:55:41;42.37;;;24.97;;
10333;SDS011;5212;47.892;16.406;2022-12-29T20:26:31;38.93;;;24.33;;
10333;SDS011;5212;47.892;16.406;2022-12-29T20:28:57;36.87;;;23.07;;
10333;SDS011;5212;47.892;16.406;2022-12-29T20:34:10;32.97;;;20.70;;
10333;SDS011;5212;47.892;16.406;2022-12-29T20:39:13;31.63;;;19.57;;
10333;SDS011;5212;47.892;16.406;2022-12-29T20:41:42;29.23;;;19.27;;
10333;SDS011;5212;47.892;16.406;2022-12-29T20:46:39;24.27;;;16.07;;
10333;SDS011;5212;47.892;16.406;2022-12-29T20:59:27;25.67;;;17.60;;
10333;SDS011;5212;47.892;16.406;2022-12-29T21:04:37;29.00;;;19.73;;
10333;SDS011;5212;47.892;16.406;2022-12-29T21:09:32;24.23;;;17.53;;
10333;SDS011;5212;47.892;16.406;2022-12-29T21:14:34;22.77;;;15.40;;
10333;SDS011;5212;47.892;16.406;2022-12-29T21:17:03;26.67;;;16.90;;
10333;SDS011;5212;47.892;16.406;2022-12-29T21:19:29;24.60;;;17.10;;
10333;SDS011;5212;47.892;16.406;2022-12-29T21:21:56;22.87;;;15.63;;
10333;SDS011;5212;47.892;16.406;2022-12-29T21:24:23;28.23;;;19.20;;
10333;SDS011;5212;47.892;16.406;2022-12-29T21:26:50;27.33;;;18.80;;
10333;SDS011;5212;47.892;16.406;2022-12-29T21:29:17;28.03;;;18.17;;
10333;SDS011;5212;47.892;16.406;2022-12-29T21:31:44;28.77;;;19.37;;
10333;SDS011;5212;47.892;16.406;2022-12-29T21:34:10;27.73;;;18.87;;
10333;SDS011;5212;47.892;16.406;2022-12-29T21:36:37;28.20;;;18.70;;
10333;SDS011;5212;47.892;16.406;2022-12-29T21:39:04;27.70;;;18.10;;
10333;SDS011;5212;47.892;16.406;2022-12-29T21:41:30;25.40;;;16.50;;
10333;SDS011;5212;47.892;16.406;2022-12-29T21:43:57;29.47;;;18.60;;
10333;SDS011;5212;47.892;16.406;2022-12-29T21:46:44;33.90;;;19.77;;
10333;SDS011;5212;47.892;16.406;2022-12-29T21:49:12;37.03;;;24.03;;
10333;SDS011;5212;47.892;16.406;2022-12-29T21:51:39;46.90;;;29.43;;
10333;SDS011;5212;47.892;16.406;2022-12-29T21:54:15;44.00;;;26.93;;
10333;SDS011;5212;47.892;16.406;2022-12-29T21:56:59;43.00;;;28.10;;
10333;SDS011;5212;47.892;16.406;2022-12-29T21:59:26;36.23;;;23.47;;
10333;SDS011;5212;47.892;16.406;2022-12-29T22:02:14;45.27;;;24.83;;
10333;SDS011;5212;47.892;16.406;2022-12-29T22:05:01;45.37;;;27.47;;
10333;SDS011;5212;47.892;16.406;2022-12-29T22:07:46;36.90;;;24.43;;
10333;SDS011;5212;47.892;16.406;2022-12-29T22:10:30;34.60;;;22.60;;
10333;SDS011;5212;47.892;16.406;2022-12-29T22:13:14;34.93;;;22.33;;
10333;SDS011;5212;47.892;16.406;2022-12-29T22:15:40;38.47;;;24.27;;
10333;SDS011;5212;47.892;16.406;2022-12-29T22:18:08;35.60;;;22.87;;
10333;SDS011;5212;47.892;16.406;2022-12-29T22:20:34;34.33;;;22.97;;
10333;SDS011;5212;47.892;16.406;2022-12-29T22:23:01;35.90;;;23.07;;
10333;SDS011;5212;47.892;16.406;2022-12-29T22:25:27;36.43;;;23.10;;
10333;SDS011;5212;47.892;16.406;2022-12-29T22:27:53;29.83;;;20.17;;
10333;SDS011;5212;47.892;16.406;2022-12-29T22:30:20;44.07;;;24.57;;
10333;SDS011;5212;47.892;16.406;2022-12-29T22:32:46;39.70;;;25.70;;
10333;SDS011;5212;47.892;16.406;2022-12-29T22:35:13;41.17;;;25.97;;
10333;SDS011;5212;47.892;16.406;2022-12-29T22:37:40;37.00;;;23.37;;
10333;SDS011;5212;47.892;16.406;2022-12-29T22:40:08;39.53;;;24.10;;
10333;SDS011;5212;47.892;16.406;2022-12-29T22:42:35;37.43;;;24.23;;
10333;SDS011;5212;47.892;16.406;2022-12-29T22:45:02;36.60;;;24.17;;
10333;SDS011;5212;47.892;16.406;2022-12-29T22:47:29;40.00;;;25.37;;
10333;SDS011;5212;47.892;16.406;2022-12-29T22:49:55;38.23;;;24.83;;
10333;SDS011;5212;47.892;16.406;2022-12-29T22:52:23;41.37;;;26.07;;
10333;SDS011;5212;47.892;16.406;2022-12-29T22:54:49;41.97;;;26.43;;
10333;SDS011;5212;47.892;16.406;2022-12-29T22:57:15;43.30;;;27.23;;
10333;SDS011;5212;47.892;16.406;2022-12-29T22:59:41;38.60;;;24.03;;
10333;SDS011;5212;47.892;16.406;2022-12-29T23:02:08;39.37;;;25.17;;
10333;SDS011;5212;47.892;16.406;2022-12-29T23:04:34;36.83;;;24.83;;
10333;SDS011;5212;47.892;16.406;2022-12-29T23:07:01;38.40;;;24.97;;
10333;SDS011;5212;47.892;16.406;2022-12-29T23:09:28;35.20;;;23.13;;
10333;SDS011;5212;47.892;16.406;2022-12-29T23:11:55;29.80;;;20.20;;
10333;SDS011;5212;47.892;16.406;2022-12-29T23:14:22;42.50;;;24.43;;
10333;SDS011;5212;47.892;16.406;2022-12-29T23:16:48;48.50;;;28.43;;
10333;SDS011;5212;47.892;16.406;2022-12-29T23:19:14;50.03;;;27.30;;
10333;SDS011;5212;47.892;16.406;2022-12-29T23:21:41;39.77;;;25.13;;
10333;SDS011;5212;47.892;16.406;2022-12-29T23:24:09;36.53;;;24.63;;
10333;SDS011;5212;47.892;16.406;2022-12-29T23:26:39;38.53;;;25.33;;
10333;SDS011;5212;47.892;16.406;2022-12-29T23:29:07;55.37;;;34.67;;
10333;SDS011;5212;47.892;16.406;2022-12-29T23:31:35;49.67;;;31.67;;
10333;SDS011;5212;47.892;16.406;2022-12-29T23:34:03;55.77;;;34.30;;
10333;SDS011;5212;47.892;16.406;2022-12-29T23:36:30;55.73;;;34.77;;
10333;SDS011;5212;47.892;16.406;2022-12-29T23:38:56;50.07;;;32.87;;
10333;SDS011;5212;47.892;16.406;2022-12-29T23:41:23;46.67;;;28.77;;
10333;SDS011;5212;47.892;16.406;2022-12-29T23:43:56;46.87;;;29.37;;
10333;SDS011;5212;47.892;16.406;2022-12-29T23:46:23;41.63;;;26.93;;
10333;SDS011;5212;47.892;16.406;2022-12-29T23:48:50;57.20;;;37.17;;
10333;SDS011;5212;47.892;16.406;2022-12-29T23:51:17;73.30;;;43.50;;
10333;SDS011;5212;47.892;16.406;2022-12-29T23:53:44;64.47;;;38.97;;
10333;SDS011;5212;47.892;16.406;2022-12-29T23:56:11;55.17;;;32.47;;
10333;SDS011;5212;47.892;16.406;2022-12-29T23:58:38;47.40;;;29.17;;
